sensor_id;sensor_type;location;lat;lon;timestamp;P1;durP1;ratioP1;P2;durP2;ratioP2
44204;SDS011;30163;42.698;23.344;2022-07-01T00:01:51;15.18;;;6.50;;
44204;SDS011;30163;42.698;23.344;2022-07-01T00:04:19;13.90;;;5.63;;
44204;SDS011;30163;42.698;23.344;2022-07-01T00:06:47;11.85;;;5.80;;
44204;SDS011;30163;42.698;23.344;2022-07-01T00:09:18;11.83;;;5.83;;
44204;SDS011;30163;42.698;23.344;2022-07-01T00:11:47;13.25;;;5.03;;
44204;SDS011;30163;42.698;23.344;2022-07-01T00:14:15;9.85;;;5.55;;
44204;SDS011;30163;42.698;23.344;2022-07-01T00:16:46;10.55;;;5.35;;
44204;SDS011;30163;42.698;23.344;2022-07-01T00:19:16;13.40;;;5.55;;
44204;SDS011;30163;42.698;23.344;2022-07-01T00:21:49;7.78;;;4.95;;
44204;SDS011;30163;42.698;23.344;2022-07-01T00:24:21;9.27;;;5.50;;
44204;SDS011;30163;42.698;23.344;2022-07-01T00:26:52;7.50;;;4.65;;
44204;SDS011;30163;42.698;23.344;2022-07-01T00:29:23;7.95;;;4.40;;
44204;SDS011;30163;42.698;23.344;2022-07-01T00:31:51;15.48;;;5.10;;
44204;SDS011;30163;42.698;23.344;2022-07-01T00:34:22;8.98;;;5.60;;
44204;SDS011;30163;42.698;23.344;2022-07-01T00:36:54;9.40;;;5.25;;
44204;SDS011;30163;42.698;23.344;2022-07-01T00:39:21;12.73;;;4.88;;
44204;SDS011;30163;42.698;23.344;2022-07-01T00:42:02;10.57;;;5.00;;
44204;SDS011;30163;42.698;23.344;2022-07-01T00:44:30;11.32;;;4.60;;
44204;SDS011;30163;42.698;23.344;2022-07-01T00:47:02;14.00;;;6.13;;
44204;SDS011;30163;42.698;23.344;2022-07-01T00:49:38;8.80;;;4.72;;
44204;SDS011;30163;42.698;23.344;2022-07-01T00:52:07;8.15;;;5.40;;
44204;SDS011;30163;42.698;23.344;2022-07-01T00:54:36;10.65;;;5.65;;
44204;SDS011;30163;42.698;23.344;2022-07-01T00:57:09;11.52;;;5.50;;
44204;SDS011;30163;42.698;23.344;2022-07-01T00:59:42;8.13;;;4.88;;
44204;SDS011;30163;42.698;23.344;2022-07-01T01:02:15;11.68;;;4.78;;
44204;SDS011;30163;42.698;23.344;2022-07-01T01:04:46;7.32;;;4.43;;
44204;SDS011;30163;42.698;23.344;2022-07-01T01:07:17;7.38;;;4.50;;
44204;SDS011;30163;42.698;23.344;2022-07-01T01:09:54;9.35;;;5.20;;
44204;SDS011;30163;42.698;23.344;2022-07-01T01:12:22;9.65;;;4.93;;
44204;SDS011;30163;42.698;23.344;2022-07-01T01:14:50;10.35;;;5.20;;
44204;SDS011;30163;42.698;23.344;2022-07-01T01:17:24;8.75;;;5.32;;
44204;SDS011;30163;42.698;23.344;2022-07-01T01:19:55;12.90;;;5.28;;
44204;SDS011;30163;42.698;23.344;2022-07-01T01:22:26;11.98;;;5.50;;
44204;SDS011;30163;42.698;23.344;2022-07-01T01:25:01;9.32;;;4.88;;
44204;SDS011;30163;42.698;23.344;2022-07-01T01:27:31;18.10;;;5.82;;
44204;SDS011;30163;42.698;23.344;2022-07-01T01:30:03;14.23;;;5.88;;
44204;SDS011;30163;42.698;23.344;2022-07-01T01:32:32;12.65;;;5.15;;
44204;SDS011;30163;42.698;23.344;2022-07-01T01:35:08;12.02;;;5.50;;
44204;SDS011;30163;42.698;23.344;2022-07-01T01:37:41;11.40;;;6.13;;
44204;SDS011;30163;42.698;23.344;2022-07-01T01:40:13;13.18;;;5.68;;
44204;SDS011;30163;42.698;23.344;2022-07-01T01:42:46;9.63;;;5.30;;
44204;SDS011;30163;42.698;23.344;2022-07-01T01:45:17;19.92;;;6.35;;
44204;SDS011;30163;42.698;23.344;2022-07-01T01:47:48;15.32;;;5.88;;
44204;SDS011;30163;42.698;23.344;2022-07-01T01:50:19;16.45;;;5.55;;
44204;SDS011;30163;42.698;23.344;2022-07-01T01:52:52;16.27;;;6.43;;
44204;SDS011;30163;42.698;23.344;2022-07-01T01:55:20;12.02;;;5.80;;
44204;SDS011;30163;42.698;23.344;2022-07-01T01:57:48;11.85;;;6.75;;
44204;SDS011;30163;42.698;23.344;2022-07-01T02:00:22;11.05;;;6.18;;
44204;SDS011;30163;42.698;23.344;2022-07-01T02:02:56;12.50;;;5.82;;
44204;SDS011;30163;42.698;23.344;2022-07-01T02:05:27;16.20;;;5.20;;
44204;SDS011;30163;42.698;23.344;2022-07-01T02:07:58;11.85;;;5.70;;
44204;SDS011;30163;42.698;23.344;2022-07-01T02:10:29;12.00;;;5.70;;
44204;SDS011;30163;42.698;23.344;2022-07-01T02:13:03;10.88;;;5.63;;
44204;SDS011;30163;42.698;23.344;2022-07-01T02:15:36;11.27;;;5.82;;
44204;SDS011;30163;42.698;23.344;2022-07-01T02:18:05;9.05;;;5.97;;
44204;SDS011;30163;42.698;23.344;2022-07-01T02:20:38;14.50;;;6.10;;
44204;SDS011;30163;42.698;23.344;2022-07-01T02:23:09;9.48;;;6.18;;
44204;SDS011;30163;42.698;23.344;2022-07-01T02:25:41;10.63;;;5.60;;
44204;SDS011;30163;42.698;23.344;2022-07-01T02:28:14;11.23;;;5.93;;
44204;SDS011;30163;42.698;23.344;2022-07-01T02:30:40;10.63;;;5.53;;
44204;SDS011;30163;42.698;23.344;2022-07-01T02:33:11;9.77;;;6.38;;
44204;SDS011;30163;42.698;23.344;2022-07-01T02:35:39;19.35;;;6.63;;
44204;SDS011;30163;42.698;23.344;2022-07-01T02:38:12;12.43;;;6.53;;
44204;SDS011;30163;42.698;23.344;2022-07-01T02:40:43;15.60;;;7.65;;
44204;SDS011;30163;42.698;23.344;2022-07-01T02:43:14;10.35;;;6.75;;
44204;SDS011;30163;42.698;23.344;2022-07-01T02:45:44;11.40;;;6.80;;
44204;SDS011;30163;42.698;23.344;2022-07-01T02:48:11;15.10;;;7.35;;
44204;SDS011;30163;42.698;23.344;2022-07-01T02:50:41;14.48;;;7.10;;
44204;SDS011;30163;42.698;23.344;2022-07-01T02:53:12;11.65;;;7.30;;
44204;SDS011;30163;42.698;23.344;2022-07-01T02:55:40;16.10;;;7.57;;
44204;SDS011;30163;42.698;23.344;2022-07-01T02:58:13;15.82;;;7.20;;
44204;SDS011;30163;42.698;23.344;2022-07-01T03:00:44;18.88;;;8.10;;
44204;SDS011;30163;42.698;23.344;2022-07-01T03:03:17;18.65;;;7.90;;
44204;SDS011;30163;42.698;23.344;2022-07-01T03:05:43;11.95;;;7.10;;
44204;SDS011;30163;42.698;23.344;2022-07-01T03:08:17;14.27;;;7.40;;
44204;SDS011;30163;42.698;23.344;2022-07-01T03:10:45;12.25;;;7.57;;
44204;SDS011;30163;42.698;23.344;2022-07-01T03:13:11;13.10;;;7.80;;
44204;SDS011;30163;42.698;23.344;2022-07-01T03:15:42;13.57;;;6.85;;
44204;SDS011;30163;42.698;23.344;2022-07-01T03:18:11;17.27;;;7.05;;
44204;SDS011;30163;42.698;23.344;2022-07-01T03:20:37;17.92;;;8.05;;
44204;SDS011;30163;42.698;23.344;2022-07-01T03:23:11;15.77;;;6.45;;
44204;SDS011;30163;42.698;23.344;2022-07-01T03:25:41;11.23;;;6.63;;
44204;SDS011;30163;42.698;23.344;2022-07-01T03:28:11;8.13;;;5.60;;
44204;SDS011;30163;42.698;23.344;2022-07-01T03:30:42;17.55;;;6.25;;
44204;SDS011;30163;42.698;23.344;2022-07-01T03:33:11;12.10;;;6.63;;
44204;SDS011;30163;42.698;23.344;2022-07-01T03:35:41;9.20;;;6.28;;
44204;SDS011;30163;42.698;23.344;2022-07-01T03:38:11;12.93;;;5.22;;
44204;SDS011;30163;42.698;23.344;2022-07-01T03:40:40;10.82;;;5.05;;
44204;SDS011;30163;42.698;23.344;2022-07-01T03:43:10;18.80;;;6.50;;
44204;SDS011;30163;42.698;23.344;2022-07-01T03:45:38;8.70;;;4.88;;
44204;SDS011;30163;42.698;23.344;2022-07-01T03:48:07;9.35;;;5.13;;
44204;SDS011;30163;42.698;23.344;2022-07-01T03:50:42;12.73;;;5.53;;
44204;SDS011;30163;42.698;23.344;2022-07-01T03:53:11;8.68;;;5.50;;
44204;SDS011;30163;42.698;23.344;2022-07-01T03:56:00;11.73;;;5.45;;
44204;SDS011;30163;42.698;23.344;2022-07-01T03:58:29;11.18;;;6.10;;
44204;SDS011;30163;42.698;23.344;2022-07-01T04:01:05;13.10;;;5.00;;
44204;SDS011;30163;42.698;23.344;2022-07-01T04:03:33;8.93;;;4.90;;
44204;SDS011;30163;42.698;23.344;2022-07-01T04:06:12;14.30;;;5.53;;
44204;SDS011;30163;42.698;23.344;2022-07-01T04:08:42;16.23;;;5.60;;
44204;SDS011;30163;42.698;23.344;2022-07-01T04:11:17;9.60;;;5.25;;
44204;SDS011;30163;42.698;23.344;2022-07-01T04:13:50;9.00;;;5.32;;
44204;SDS011;30163;42.698;23.344;2022-07-01T04:16:20;12.00;;;5.50;;
44204;SDS011;30163;42.698;23.344;2022-07-01T04:18:53;15.85;;;5.70;;
44204;SDS011;30163;42.698;23.344;2022-07-01T04:21:23;9.65;;;5.57;;
44204;SDS011;30163;42.698;23.344;2022-07-01T04:24:15;7.43;;;5.20;;
44204;SDS011;30163;42.698;23.344;2022-07-01T04:26:50;13.48;;;6.05;;
44204;SDS011;30163;42.698;23.344;2022-07-01T04:29:19;11.63;;;5.50;;
44204;SDS011;30163;42.698;23.344;2022-07-01T04:31:50;8.43;;;5.65;;
44204;SDS011;30163;42.698;23.344;2022-07-01T04:34:24;11.27;;;5.53;;
44204;SDS011;30163;42.698;23.344;2022-07-01T04:36:55;9.27;;;6.15;;
44204;SDS011;30163;42.698;23.344;2022-07-01T04:39:21;12.93;;;6.28;;
44204;SDS011;30163;42.698;23.344;2022-07-01T04:41:49;10.77;;;7.15;;
44204;SDS011;30163;42.698;23.344;2022-07-01T04:44:30;17.67;;;7.55;;
44204;SDS011;30163;42.698;23.344;2022-07-01T04:47:00;16.23;;;6.47;;
44204;SDS011;30163;42.698;23.344;2022-07-01T04:49:27;8.13;;;6.22;;
44204;SDS011;30163;42.698;23.344;2022-07-01T04:52:00;11.48;;;6.35;;
44204;SDS011;30163;42.698;23.344;2022-07-01T04:54:26;20.83;;;8.18;;
44204;SDS011;30163;42.698;23.344;2022-07-01T04:56:51;9.15;;;6.68;;
44204;SDS011;30163;42.698;23.344;2022-07-01T04:59:20;13.00;;;7.00;;
44204;SDS011;30163;42.698;23.344;2022-07-01T05:01:48;15.05;;;6.90;;
44204;SDS011;30163;42.698;23.344;2022-07-01T05:04:19;18.27;;;9.43;;
44204;SDS011;30163;42.698;23.344;2022-07-01T05:06:47;20.48;;;8.63;;
44204;SDS011;30163;42.698;23.344;2022-07-01T05:09:13;18.92;;;8.75;;
44204;SDS011;30163;42.698;23.344;2022-07-01T05:11:40;17.45;;;9.65;;
44204;SDS011;30163;42.698;23.344;2022-07-01T05:14:11;18.13;;;9.80;;
44204;SDS011;30163;42.698;23.344;2022-07-01T05:16:37;26.13;;;9.73;;
44204;SDS011;30163;42.698;23.344;2022-07-01T05:19:06;12.80;;;8.70;;
44204;SDS011;30163;42.698;23.344;2022-07-01T05:21:49;18.15;;;10.43;;
44204;SDS011;30163;42.698;23.344;2022-07-01T05:24:28;22.52;;;8.60;;
44204;SDS011;30163;42.698;23.344;2022-07-01T05:26:58;17.88;;;9.20;;
44204;SDS011;30163;42.698;23.344;2022-07-01T05:29:24;12.57;;;8.32;;
44204;SDS011;30163;42.698;23.344;2022-07-01T05:31:50;20.25;;;8.02;;
44204;SDS011;30163;42.698;23.344;2022-07-01T05:34:19;11.50;;;7.93;;
44204;SDS011;30163;42.698;23.344;2022-07-01T05:36:50;22.52;;;8.80;;
44204;SDS011;30163;42.698;23.344;2022-07-01T05:39:18;19.38;;;7.30;;
44204;SDS011;30163;42.698;23.344;2022-07-01T05:41:44;16.15;;;7.80;;
44204;SDS011;30163;42.698;23.344;2022-07-01T05:44:17;17.42;;;7.90;;
44204;SDS011;30163;42.698;23.344;2022-07-01T05:46:43;13.13;;;7.68;;
44204;SDS011;30163;42.698;23.344;2022-07-01T05:49:11;12.55;;;7.80;;
44204;SDS011;30163;42.698;23.344;2022-07-01T05:51:42;13.73;;;7.78;;
44204;SDS011;30163;42.698;23.344;2022-07-01T05:54:10;11.30;;;7.47;;
44204;SDS011;30163;42.698;23.344;2022-07-01T05:56:36;19.15;;;7.10;;
44204;SDS011;30163;42.698;23.344;2022-07-01T05:59:03;18.50;;;8.23;;
44204;SDS011;30163;42.698;23.344;2022-07-01T06:01:31;14.07;;;8.02;;
44204;SDS011;30163;42.698;23.344;2022-07-01T06:03:59;15.95;;;7.70;;
44204;SDS011;30163;42.698;23.344;2022-07-01T06:06:30;17.83;;;8.32;;
44204;SDS011;30163;42.698;23.344;2022-07-01T06:08:56;11.80;;;7.05;;
44204;SDS011;30163;42.698;23.344;2022-07-01T06:11:21;12.32;;;7.63;;
44204;SDS011;30163;42.698;23.344;2022-07-01T06:13:49;13.48;;;7.40;;
44204;SDS011;30163;42.698;23.344;2022-07-01T06:16:15;17.98;;;8.43;;
44204;SDS011;30163;42.698;23.344;2022-07-01T06:18:48;19.48;;;7.90;;
44204;SDS011;30163;42.698;23.344;2022-07-01T06:21:18;17.92;;;8.02;;
44204;SDS011;30163;42.698;23.344;2022-07-01T06:23:47;14.05;;;6.85;;
44204;SDS011;30163;42.698;23.344;2022-07-01T06:26:13;15.15;;;6.70;;
44204;SDS011;30163;42.698;23.344;2022-07-01T06:28:41;14.38;;;6.78;;
44204;SDS011;30163;42.698;23.344;2022-07-01T06:31:13;15.95;;;6.82;;
44204;SDS011;30163;42.698;23.344;2022-07-01T06:33:41;15.25;;;6.68;;
44204;SDS011;30163;42.698;23.344;2022-07-01T06:36:09;11.73;;;5.88;;
44204;SDS011;30163;42.698;23.344;2022-07-01T06:38:39;13.60;;;6.30;;
44204;SDS011;30163;42.698;23.344;2022-07-01T06:41:10;18.00;;;6.40;;
44204;SDS011;30163;42.698;23.344;2022-07-01T06:43:58;22.58;;;6.65;;
44204;SDS011;30163;42.698;23.344;2022-07-01T06:46:24;19.33;;;7.28;;
44204;SDS011;30163;42.698;23.344;2022-07-01T06:48:50;13.52;;;5.95;;
44204;SDS011;30163;42.698;23.344;2022-07-01T06:51:16;11.68;;;6.15;;
44204;SDS011;30163;42.698;23.344;2022-07-01T06:53:47;10.57;;;6.38;;
44204;SDS011;30163;42.698;23.344;2022-07-01T06:56:17;10.07;;;6.15;;
44204;SDS011;30163;42.698;23.344;2022-07-01T06:58:46;12.30;;;6.07;;
44204;SDS011;30163;42.698;23.344;2022-07-01T07:01:17;9.15;;;5.80;;
44204;SDS011;30163;42.698;23.344;2022-07-01T07:03:49;13.48;;;6.22;;
44204;SDS011;30163;42.698;23.344;2022-07-01T07:06:15;12.40;;;6.45;;
44204;SDS011;30163;42.698;23.344;2022-07-01T07:08:44;16.00;;;6.70;;
44204;SDS011;30163;42.698;23.344;2022-07-01T07:11:12;16.42;;;6.78;;
44204;SDS011;30163;42.698;23.344;2022-07-01T07:13:40;14.85;;;7.03;;
44204;SDS011;30163;42.698;23.344;2022-07-01T07:16:09;11.43;;;6.75;;
44204;SDS011;30163;42.698;23.344;2022-07-01T07:18:48;12.07;;;6.72;;
44204;SDS011;30163;42.698;23.344;2022-07-01T07:24:59;14.77;;;6.07;;
44204;SDS011;30163;42.698;23.344;2022-07-01T07:27:28;37.92;;;15.25;;
44204;SDS011;30163;42.698;23.344;2022-07-01T07:29:56;12.30;;;6.20;;
44204;SDS011;30163;42.698;23.344;2022-07-01T07:32:22;11.80;;;6.28;;
44204;SDS011;30163;42.698;23.344;2022-07-01T07:34:50;10.93;;;6.13;;
44204;SDS011;30163;42.698;23.344;2022-07-01T07:37:18;16.73;;;5.80;;
44204;SDS011;30163;42.698;23.344;2022-07-01T07:39:47;8.27;;;5.40;;
44204;SDS011;30163;42.698;23.344;2022-07-01T07:42:12;8.60;;;5.18;;
44204;SDS011;30163;42.698;23.344;2022-07-01T07:48:02;7.55;;;4.60;;
44204;SDS011;30163;42.698;23.344;2022-07-01T07:50:33;12.50;;;5.97;;
44204;SDS011;30163;42.698;23.344;2022-07-01T07:53:01;6.80;;;4.68;;
44204;SDS011;30163;42.698;23.344;2022-07-01T07:55:32;11.45;;;4.65;;
44204;SDS011;30163;42.698;23.344;2022-07-01T07:58:07;13.18;;;4.63;;
44204;SDS011;30163;42.698;23.344;2022-07-01T08:00:38;9.82;;;4.95;;
44204;SDS011;30163;42.698;23.344;2022-07-01T08:03:11;7.40;;;4.85;;
44204;SDS011;30163;42.698;23.344;2022-07-01T08:05:39;6.80;;;4.57;;
44204;SDS011;30163;42.698;23.344;2022-07-01T08:08:07;13.07;;;5.18;;
44204;SDS011;30163;42.698;23.344;2022-07-01T08:10:33;9.10;;;4.82;;
44204;SDS011;30163;42.698;23.344;2022-07-01T08:13:01;11.10;;;4.93;;
44204;SDS011;30163;42.698;23.344;2022-07-01T08:15:31;10.82;;;5.20;;
44204;SDS011;30163;42.698;23.344;2022-07-01T08:18:04;11.05;;;5.15;;
44204;SDS011;30163;42.698;23.344;2022-07-01T08:20:30;12.10;;;4.80;;
44204;SDS011;30163;42.698;23.344;2022-07-01T08:22:58;16.30;;;4.82;;
44204;SDS011;30163;42.698;23.344;2022-07-01T08:25:29;8.20;;;4.93;;
44204;SDS011;30163;42.698;23.344;2022-07-01T08:27:57;14.55;;;4.88;;
44204;SDS011;30163;42.698;23.344;2022-07-01T08:30:25;8.57;;;4.78;;
44204;SDS011;30163;42.698;23.344;2022-07-01T08:32:56;13.02;;;5.60;;
44204;SDS011;30163;42.698;23.344;2022-07-01T08:35:22;8.15;;;4.55;;
44204;SDS011;30163;42.698;23.344;2022-07-01T08:37:50;14.90;;;5.45;;
44204;SDS011;30163;42.698;23.344;2022-07-01T08:40:23;15.63;;;4.47;;
44204;SDS011;30163;42.698;23.344;2022-07-01T08:42:58;12.50;;;4.80;;
44204;SDS011;30163;42.698;23.344;2022-07-01T08:45:38;10.18;;;5.13;;
44204;SDS011;30163;42.698;23.344;2022-07-01T08:51:41;5.60;;;4.03;;
44204;SDS011;30163;42.698;23.344;2022-07-01T08:54:15;11.52;;;4.38;;
44204;SDS011;30163;42.698;23.344;2022-07-01T08:56:45;13.13;;;4.90;;
44204;SDS011;30163;42.698;23.344;2022-07-01T08:59:22;15.82;;;4.15;;
44204;SDS011;30163;42.698;23.344;2022-07-01T09:01:59;8.40;;;5.03;;
44204;SDS011;30163;42.698;23.344;2022-07-01T09:04:26;5.97;;;4.35;;
44204;SDS011;30163;42.698;23.344;2022-07-01T09:07:10;9.10;;;4.35;;
44204;SDS011;30163;42.698;23.344;2022-07-01T09:09:37;13.32;;;4.53;;
44204;SDS011;30163;42.698;23.344;2022-07-01T09:12:10;6.27;;;4.03;;
44204;SDS011;30163;42.698;23.344;2022-07-01T09:14:38;7.72;;;3.92;;
44204;SDS011;30163;42.698;23.344;2022-07-01T09:17:05;9.57;;;4.70;;
44204;SDS011;30163;42.698;23.344;2022-07-01T09:19:34;8.77;;;4.43;;
44204;SDS011;30163;42.698;23.344;2022-07-01T09:22:05;8.98;;;4.40;;
44204;SDS011;30163;42.698;23.344;2022-07-01T09:27:09;9.40;;;3.90;;
44204;SDS011;30163;42.698;23.344;2022-07-01T09:30:27;9.48;;;4.35;;
44204;SDS011;30163;42.698;23.344;2022-07-01T09:33:15;8.60;;;4.30;;
44204;SDS011;30163;42.698;23.344;2022-07-01T09:35:43;5.50;;;3.50;;
44204;SDS011;30163;42.698;23.344;2022-07-01T09:38:19;14.65;;;3.60;;
44204;SDS011;30163;42.698;23.344;2022-07-01T09:40:53;10.50;;;4.18;;
44204;SDS011;30163;42.698;23.344;2022-07-01T09:43:24;7.57;;;3.78;;
44204;SDS011;30163;42.698;23.344;2022-07-01T09:51:03;5.13;;;3.47;;
44204;SDS011;30163;42.698;23.344;2022-07-01T09:53:31;5.18;;;3.80;;
44204;SDS011;30163;42.698;23.344;2022-07-01T09:56:00;8.27;;;3.45;;
44204;SDS011;30163;42.698;23.344;2022-07-01T09:58:29;8.68;;;3.75;;
44204;SDS011;30163;42.698;23.344;2022-07-01T10:00:57;4.53;;;3.38;;
44204;SDS011;30163;42.698;23.344;2022-07-01T10:03:23;7.45;;;3.33;;
44204;SDS011;30163;42.698;23.344;2022-07-01T10:05:56;11.77;;;3.97;;
44204;SDS011;30163;42.698;23.344;2022-07-01T10:14:10;7.45;;;3.40;;
44204;SDS011;30163;42.698;23.344;2022-07-01T10:16:37;3.53;;;3.10;;
44204;SDS011;30163;42.698;23.344;2022-07-01T10:19:24;4.78;;;3.20;;
44204;SDS011;30163;42.698;23.344;2022-07-01T10:21:51;6.55;;;3.47;;
44204;SDS011;30163;42.698;23.344;2022-07-01T10:24:22;4.50;;;3.15;;
44204;SDS011;30163;42.698;23.344;2022-07-01T10:26:58;4.93;;;2.97;;
44204;SDS011;30163;42.698;23.344;2022-07-01T10:29:26;4.90;;;3.13;;
44204;SDS011;30163;42.698;23.344;2022-07-01T10:32:10;4.50;;;3.22;;
44204;SDS011;30163;42.698;23.344;2022-07-01T10:34:46;5.45;;;3.50;;
44204;SDS011;30163;42.698;23.344;2022-07-01T10:37:12;5.75;;;3.05;;
44204;SDS011;30163;42.698;23.344;2022-07-01T10:39:54;4.25;;;2.80;;
44204;SDS011;30163;42.698;23.344;2022-07-01T10:42:23;4.70;;;2.95;;
44204;SDS011;30163;42.698;23.344;2022-07-01T10:44:59;5.40;;;3.70;;
44204;SDS011;30163;42.698;23.344;2022-07-01T10:47:25;15.13;;;4.57;;
44204;SDS011;30163;42.698;23.344;2022-07-01T10:49:56;6.00;;;3.50;;
44204;SDS011;30163;42.698;23.344;2022-07-01T10:52:23;5.47;;;3.95;;
44204;SDS011;30163;42.698;23.344;2022-07-01T10:54:52;6.50;;;4.13;;
44204;SDS011;30163;42.698;23.344;2022-07-01T10:57:22;11.35;;;3.40;;
44204;SDS011;30163;42.698;23.344;2022-07-01T11:02:36;6.15;;;3.53;;
44204;SDS011;30163;42.698;23.344;2022-07-01T11:05:12;6.82;;;3.25;;
44204;SDS011;30163;42.698;23.344;2022-07-01T11:07:42;7.07;;;4.20;;
44204;SDS011;30163;42.698;23.344;2022-07-01T11:10:11;5.55;;;2.85;;
44204;SDS011;30163;42.698;23.344;2022-07-01T11:12:39;9.07;;;3.50;;
44204;SDS011;30163;42.698;23.344;2022-07-01T11:15:09;5.90;;;3.63;;
44204;SDS011;30163;42.698;23.344;2022-07-01T11:17:36;7.50;;;3.30;;
44204;SDS011;30163;42.698;23.344;2022-07-01T11:20:07;5.57;;;3.20;;
44204;SDS011;30163;42.698;23.344;2022-07-01T11:22:35;4.25;;;2.90;;
44204;SDS011;30163;42.698;23.344;2022-07-01T11:25:02;6.15;;;2.80;;
44204;SDS011;30163;42.698;23.344;2022-07-01T11:27:34;4.70;;;3.17;;
44204;SDS011;30163;42.698;23.344;2022-07-01T11:30:03;8.93;;;2.63;;
44204;SDS011;30163;42.698;23.344;2022-07-01T11:32:40;3.50;;;2.58;;
44204;SDS011;30163;42.698;23.344;2022-07-01T11:35:10;8.30;;;3.65;;
44204;SDS011;30163;42.698;23.344;2022-07-01T11:38:05;3.95;;;3.25;;
44204;SDS011;30163;42.698;23.344;2022-07-01T11:40:55;3.55;;;2.67;;
44204;SDS011;30163;42.698;23.344;2022-07-01T11:43:25;3.38;;;2.90;;
44204;SDS011;30163;42.698;23.344;2022-07-01T11:45:53;4.15;;;2.65;;
44204;SDS011;30163;42.698;23.344;2022-07-01T11:48:30;8.35;;;3.42;;
44204;SDS011;30163;42.698;23.344;2022-07-01T11:51:27;3.85;;;2.85;;
44204;SDS011;30163;42.698;23.344;2022-07-01T11:53:52;3.78;;;2.83;;
44204;SDS011;30163;42.698;23.344;2022-07-01T11:56:29;6.00;;;3.08;;
44204;SDS011;30163;42.698;23.344;2022-07-01T11:58:58;4.38;;;2.95;;
44204;SDS011;30163;42.698;23.344;2022-07-01T12:01:25;11.32;;;2.90;;
44204;SDS011;30163;42.698;23.344;2022-07-01T12:03:52;3.70;;;2.97;;
44204;SDS011;30163;42.698;23.344;2022-07-01T12:06:19;4.95;;;2.80;;
44204;SDS011;30163;42.698;23.344;2022-07-01T12:08:48;3.83;;;2.50;;
44204;SDS011;30163;42.698;23.344;2022-07-01T12:11:14;4.30;;;3.03;;
44204;SDS011;30163;42.698;23.344;2022-07-01T12:13:41;6.85;;;3.00;;
44204;SDS011;30163;42.698;23.344;2022-07-01T12:16:12;4.88;;;3.08;;
44204;SDS011;30163;42.698;23.344;2022-07-01T12:18:38;4.50;;;2.75;;
44204;SDS011;30163;42.698;23.344;2022-07-01T12:21:17;7.25;;;2.80;;
44204;SDS011;30163;42.698;23.344;2022-07-01T12:24:06;4.53;;;2.78;;
44204;SDS011;30163;42.698;23.344;2022-07-01T12:26:32;4.28;;;2.70;;
44204;SDS011;30163;42.698;23.344;2022-07-01T12:28:57;4.32;;;2.90;;
44204;SDS011;30163;42.698;23.344;2022-07-01T12:31:28;3.23;;;2.60;;
44204;SDS011;30163;42.698;23.344;2022-07-01T12:33:54;2.90;;;2.47;;
44204;SDS011;30163;42.698;23.344;2022-07-01T12:36:20;2.63;;;2.30;;
44204;SDS011;30163;42.698;23.344;2022-07-01T12:38:45;3.03;;;2.70;;
44204;SDS011;30163;42.698;23.344;2022-07-01T12:41:30;4.22;;;2.40;;
44204;SDS011;30163;42.698;23.344;2022-07-01T12:44:00;3.30;;;2.60;;
44204;SDS011;30163;42.698;23.344;2022-07-01T12:46:28;3.70;;;2.40;;
44204;SDS011;30163;42.698;23.344;2022-07-01T12:48:55;4.68;;;2.35;;
44204;SDS011;30163;42.698;23.344;2022-07-01T12:51:31;2.58;;;2.38;;
44204;SDS011;30163;42.698;23.344;2022-07-01T12:53:57;4.45;;;2.75;;
44204;SDS011;30163;42.698;23.344;2022-07-01T12:56:28;11.33;;;3.43;;
44204;SDS011;30163;42.698;23.344;2022-07-01T12:58:54;4.82;;;3.33;;
44204;SDS011;30163;42.698;23.344;2022-07-01T13:01:22;4.80;;;3.33;;
44204;SDS011;30163;42.698;23.344;2022-07-01T13:03:48;5.32;;;3.65;;
44204;SDS011;30163;42.698;23.344;2022-07-01T13:06:14;4.55;;;3.28;;
44204;SDS011;30163;42.698;23.344;2022-07-01T13:08:42;8.65;;;3.30;;
44204;SDS011;30163;42.698;23.344;2022-07-01T13:11:10;3.88;;;3.17;;
44204;SDS011;30163;42.698;23.344;2022-07-01T13:13:38;3.97;;;3.30;;
44204;SDS011;30163;42.698;23.344;2022-07-01T13:16:07;5.65;;;2.90;;
44204;SDS011;30163;42.698;23.344;2022-07-01T13:18:35;5.13;;;3.30;;
44204;SDS011;30163;42.698;23.344;2022-07-01T13:21:03;4.38;;;3.38;;
44204;SDS011;30163;42.698;23.344;2022-07-01T13:23:34;5.60;;;3.50;;
44204;SDS011;30163;42.698;23.344;2022-07-01T13:26:02;3.38;;;2.83;;
44204;SDS011;30163;42.698;23.344;2022-07-01T13:28:33;10.82;;;3.33;;
44204;SDS011;30163;42.698;23.344;2022-07-01T13:31:01;5.97;;;3.00;;
44204;SDS011;30163;42.698;23.344;2022-07-01T13:33:32;4.40;;;3.45;;
44204;SDS011;30163;42.698;23.344;2022-07-01T13:36:00;5.90;;;3.10;;
44204;SDS011;30163;42.698;23.344;2022-07-01T13:38:30;4.68;;;3.67;;
44204;SDS011;30163;42.698;23.344;2022-07-01T13:40:56;3.35;;;2.90;;
44204;SDS011;30163;42.698;23.344;2022-07-01T13:43:21;3.65;;;2.88;;
44204;SDS011;30163;42.698;23.344;2022-07-01T13:45:49;5.22;;;3.55;;
44204;SDS011;30163;42.698;23.344;2022-07-01T13:48:23;5.03;;;3.63;;
44204;SDS011;30163;42.698;23.344;2022-07-01T13:50:48;5.18;;;3.67;;
44204;SDS011;30163;42.698;23.344;2022-07-01T13:53:14;3.35;;;3.00;;
44204;SDS011;30163;42.698;23.344;2022-07-01T13:55:40;7.05;;;3.08;;
44204;SDS011;30163;42.698;23.344;2022-07-01T13:58:11;4.97;;;3.00;;
44204;SDS011;30163;42.698;23.344;2022-07-01T14:00:38;4.60;;;3.47;;
44204;SDS011;30163;42.698;23.344;2022-07-01T14:03:08;3.67;;;3.15;;
44204;SDS011;30163;42.698;23.344;2022-07-01T14:05:37;7.03;;;3.10;;
44204;SDS011;30163;42.698;23.344;2022-07-01T14:08:09;7.25;;;3.30;;
44204;SDS011;30163;42.698;23.344;2022-07-01T14:10:39;4.53;;;3.50;;
44204;SDS011;30163;42.698;23.344;2022-07-01T14:13:11;5.20;;;3.78;;
44204;SDS011;30163;42.698;23.344;2022-07-01T14:15:39;6.65;;;3.33;;
44204;SDS011;30163;42.698;23.344;2022-07-01T14:18:05;4.30;;;3.00;;
44204;SDS011;30163;42.698;23.344;2022-07-01T14:20:31;4.13;;;2.90;;
44204;SDS011;30163;42.698;23.344;2022-07-01T14:23:04;3.20;;;2.90;;
44204;SDS011;30163;42.698;23.344;2022-07-01T14:25:34;3.38;;;2.80;;
44204;SDS011;30163;42.698;23.344;2022-07-01T14:28:00;3.85;;;2.90;;
44204;SDS011;30163;42.698;23.344;2022-07-01T14:30:30;4.35;;;3.65;;
44204;SDS011;30163;42.698;23.344;2022-07-01T14:32:58;6.13;;;3.47;;
44204;SDS011;30163;42.698;23.344;2022-07-01T14:35:28;4.57;;;3.47;;
44204;SDS011;30163;42.698;23.344;2022-07-01T14:37:57;8.20;;;3.00;;
44204;SDS011;30163;42.698;23.344;2022-07-01T14:40:24;3.47;;;3.10;;
44204;SDS011;30163;42.698;23.344;2022-07-01T14:42:50;4.55;;;2.65;;
44204;SDS011;30163;42.698;23.344;2022-07-01T14:45:16;5.25;;;3.35;;
44204;SDS011;30163;42.698;23.344;2022-07-01T14:47:44;7.47;;;3.70;;
44204;SDS011;30163;42.698;23.344;2022-07-01T14:50:15;5.15;;;3.10;;
44204;SDS011;30163;42.698;23.344;2022-07-01T14:52:44;7.65;;;3.30;;
44204;SDS011;30163;42.698;23.344;2022-07-01T14:55:09;3.85;;;3.17;;
44204;SDS011;30163;42.698;23.344;2022-07-01T14:57:37;4.25;;;3.13;;
44204;SDS011;30163;42.698;23.344;2022-07-01T15:00:06;4.18;;;2.80;;
44204;SDS011;30163;42.698;23.344;2022-07-01T15:02:32;3.50;;;2.80;;
44204;SDS011;30163;42.698;23.344;2022-07-01T15:04:58;7.28;;;3.03;;
44204;SDS011;30163;42.698;23.344;2022-07-01T15:07:26;7.32;;;3.05;;
44204;SDS011;30163;42.698;23.344;2022-07-01T15:09:53;6.22;;;3.70;;
44204;SDS011;30163;42.698;23.344;2022-07-01T15:12:21;6.72;;;3.22;;
44204;SDS011;30163;42.698;23.344;2022-07-01T15:14:49;5.60;;;3.03;;